Time;durP1;ratioP1;P1;durP2;ratioP2;P2;SDS_P1;SDS_P2;PMS_P1;PMS_P2;Temp;Humidity;BMP_temperature;BMP_pressure;BME280_temperature;BME280_humidity;BME280_pressure;Samples;Min_cycle;Max_cycle;Signal;HPM_P1;HPM_P2
2023/01/01 00:00:39;;;;;;;8.60;5.50;;;;;;;16.44;62.89;99935.97;5072766;28;20478;-86
2023/01/01 00:03:05;;;;;;;9.10;4.88;;;;;;;16.45;63.29;99942.97;5073705;28;20028;-86
2023/01/01 00:05:30;;;;;;;11.15;5.53;;;;;;;16.43;63.00;99939.53;5073668;28;20036;-86
2023/01/01 00:07:56;;;;;;;11.07;5.55;;;;;;;16.42;63.33;99948.34;5072226;28;20049;-85
2023/01/01 00:10:27;;;;;;;8.13;5.05;;;;;;;16.45;63.22;99943.84;5073714;28;20039;-86
2023/01/01 00:12:52;;;;;;;8.13;4.43;;;;;;;16.44;63.02;99941.25;5073698;28;20031;-85
2023/01/01 00:15:18;;;;;;;10.00;5.40;;;;;;;16.47;62.66;99942.00;5072540;28;20032;-85
2023/01/01 00:17:44;;;;;;;9.95;4.68;;;;;;;16.46;63.04;99952.59;5073839;28;20082;-83
2023/01/01 00:20:10;;;;;;;8.20;4.88;;;;;;;16.48;62.65;99963.94;5073441;28;20048;-85
2023/01/01 00:22:35;;;;;;;11.25;5.25;;;;;;;16.48;63.00;99972.69;5072136;28;20024;-85
2023/01/01 00:25:01;;;;;;;6.97;4.40;;;;;;;16.51;62.68;99977.00;5072591;28;20033;-86
2023/01/01 00:27:26;;;;;;;10.27;4.75;;;;;;;16.52;62.87;99981.38;5072323;28;20063;-86
2023/01/01 00:29:51;;;;;;;10.25;5.35;;;;;;;16.52;62.51;99976.09;5073326;28;20020;-83
2023/01/01 00:32:17;;;;;;;10.70;5.22;;;;;;;16.53;62.68;99983.09;5072181;28;20028;-86
2023/01/01 00:34:42;;;;;;;10.20;5.80;;;;;;;16.53;62.59;99967.28;5072449;28;20029;-86
2023/01/01 00:37:08;;;;;;;8.35;5.55;;;;;;;16.53;62.45;99964.66;5073102;28;20029;-85
2023/01/01 00:39:33;;;;;;;10.10;5.28;;;;;;;16.54;62.73;99961.09;5073489;28;20021;-85
2023/01/01 00:41:58;;;;;;;10.20;4.75;;;;;;;16.54;62.31;99947.94;5073231;28;20028;-86
2023/01/01 00:44:24;;;;;;;8.63;5.18;;;;;;;16.55;62.36;99954.91;5073307;28;20123;-85
2023/01/01 00:46:49;;;;;;;9.07;5.13;;;;;;;16.56;62.65;99951.34;5073285;28;20036;-87
2023/01/01 00:49:15;;;;;;;9.52;5.25;;;;;;;16.52;62.76;99949.75;5073313;28;20031;-86
2023/01/01 00:51:40;;;;;;;9.52;5.00;;;;;;;16.46;62.79;99949.97;5073047;28;20028;-86
2023/01/01 00:54:06;;;;;;;10.85;5.45;;;;;;;16.47;62.79;99946.44;5073142;28;20028;-86
2023/01/01 00:56:31;;;;;;;9.52;5.05;;;;;;;16.50;62.87;99948.94;5073398;28;20054;-86
2023/01/01 00:58:57;;;;;;;11.30;5.53;;;;;;;16.49;62.80;99960.38;5073291;28;20039;-85
2023/01/01 01:01:22;;;;;;;8.65;4.80;;;;;;;16.46;63.08;99961.34;5072748;28;20036;-85
2023/01/01 01:03:48;;;;;;;8.73;4.70;;;;;;;16.45;62.89;99969.31;5072920;28;20029;-85
2023/01/01 01:06:15;;;;;;;10.50;5.55;;;;;;;16.43;62.75;99969.38;5072429;28;20037;-85
2023/01/01 01:08:44;;;;;;;9.15;4.50;;;;;;;16.45;63.11;99964.03;5072879;28;20033;-85
2023/01/01 01:11:14;;;;;;;10.93;4.80;;;;;;;16.46;62.93;99952.59;5073092;28;20028;-86
2023/01/01 01:13:41;;;;;;;8.23;4.40;;;;;;;16.45;62.91;99956.13;5073155;28;20434;-86
2023/01/01 01:16:19;;;;;;;8.75;4.40;;;;;;;16.37;63.27;99946.72;5074044;28;20101;-86
2023/01/01 01:18:44;;;;;;;9.38;4.55;;;;;;;16.42;63.11;99950.97;5076829;28;20493;-86
2023/01/01 01:21:14;;;;;;;8.93;4.85;;;;;;;16.47;62.86;99951.69;5076367;28;20029;-86
2023/01/01 01:23:40;;;;;;;8.93;4.60;;;;;;;16.43;62.86;99944.78;5077010;28;20035;-86
2023/01/01 01:26:19;;;;;;;9.73;4.50;;;;;;;16.43;62.72;99944.78;5076885;28;20032;-83
2023/01/01 01:28:45;;;;;;;7.63;4.60;;;;;;;16.40;62.85;99939.63;5076473;28;20028;-86
2023/01/01 01:31:11;;;;;;;8.57;4.45;;;;;;;16.38;62.83;99927.38;5076777;28;20036;-86
2023/01/01 01:33:37;;;;;;;8.25;4.15;;;;;;;16.36;63.24;99934.47;5076608;28;20111;-86
2023/01/01 01:36:04;;;;;;;12.90;4.97;;;;;;;16.35;63.02;99927.50;5076306;28;20111;-83
2023/01/01 01:38:29;;;;;;;12.40;5.05;;;;;;;16.29;63.27;99927.69;5076689;28;20020;-85
2023/01/01 01:40:55;;;;;;;8.45;4.57;;;;;;;16.33;63.17;99924.03;5075288;28;20035;-85
2023/01/01 01:43:45;;;;;;;7.70;4.32;;;;;;;16.34;63.15;99925.78;5075444;28;20375;-85
2023/01/01 01:46:19;;;;;;;12.40;4.35;;;;;;;16.30;63.36;99918.88;5075359;28;20028;-84
2023/01/01 01:48:49;;;;;;;9.50;4.70;;;;;;;16.29;63.53;99911.91;5076429;28;20021;-84
2023/01/01 01:51:19;;;;;;;9.52;5.13;;;;;;;16.30;63.41;99910.97;5076161;28;20440;-86
2023/01/01 01:53:49;;;;;;;10.07;4.65;;;;;;;16.28;63.28;99914.56;5075981;28;20039;-85
2023/01/01 01:56:20;;;;;;;9.02;4.47;;;;;;;16.31;63.46;99914.44;5076263;28;20070;-86
2023/01/01 01:58:46;;;;;;;9.48;4.45;;;;;;;16.29;63.39;99909.25;5074853;28;20024;-85
2023/01/01 02:01:11;;;;;;;10.20;4.85;;;;;;;16.25;63.59;99910.28;5075966;28;20521;-86
2023/01/01 02:03:57;;;;;;;12.07;5.00;;;;;;;16.26;63.57;99911.16;5076234;28;20024;-85
2023/01/01 02:06:26;;;;;;;10.27;4.20;;;;;;;16.24;63.51;99892.75;5075993;28;20506;-86
2023/01/01 02:08:52;;;;;;;8.65;4.50;;;;;;;16.23;63.75;99896.31;5075943;28;20054;-85
2023/01/01 02:11:18;;;;;;;9.93;4.65;;;;;;;16.25;63.92;99899.75;5076479;28;20024;-86
2023/01/01 02:13:44;;;;;;;10.68;4.20;;;;;;;16.23;63.57;99901.56;5076246;28;20024;-86
2023/01/01 02:16:36;;;;;;;11.05;4.25;;;;;;;16.21;63.67;99909.53;5075001;28;20032;-85
2023/01/01 02:19:25;;;;;;;9.02;3.88;;;;;;;16.22;63.73;99910.38;5075842;28;20077;-85
2023/01/01 02:22:12;;;;;;;8.10;4.25;;;;;;;16.21;63.80;99898.97;5076014;28;20110;-84
2023/01/01 02:25:05;;;;;;;7.57;4.00;;;;;;;16.21;63.85;99898.97;5075917;28;20105;-85
2023/01/01 02:27:58;;;;;;;9.32;4.05;;;;;;;16.21;63.61;99898.13;5074694;28;20093;-86
2023/01/01 02:30:26;;;;;;;9.93;4.20;;;;;;;16.21;63.71;99903.38;5075887;28;20478;-85
2023/01/01 02:33:01;;;;;;;8.65;4.38;;;;;;;16.20;63.82;99906.94;5075487;28;20032;-84
2023/01/01 02:35:33;;;;;;;7.95;4.07;;;;;;;16.20;63.72;99906.94;5075698;28;20498;-85
2023/01/01 02:38:23;;;;;;;10.40;4.18;;;;;;;16.23;63.89;99901.56;5075706;28;20109;-85
2023/01/01 02:40:54;;;;;;;10.00;4.38;;;;;;;16.19;63.98;99910.47;5074323;28;20037;-86
2023/01/01 02:43:20;;;;;;;8.60;4.50;;;;;;;16.19;63.57;99913.13;5075203;28;20036;-86
2023/01/01 02:45:46;;;;;;;12.32;4.85;;;;;;;16.19;64.04;99902.59;5075050;28;20028;-85
2023/01/01 02:48:36;;;;;;;11.02;4.63;;;;;;;16.19;64.08;99897.31;5073872;28;20033;-80
2023/01/01 02:51:16;;;;;;;9.02;4.30;;;;;;;16.22;63.68;99891.94;5074958;28;20039;-84
2023/01/01 02:54:17;;;;;;;9.15;4.22;;;;;;;16.20;63.82;99896.41;5073977;28;20494;-84
2023/01/01 02:57:04;;;;;;;6.75;3.72;;;;;;;16.25;63.71;99899.75;5075080;28;20016;-83
2023/01/01 03:02:40;;;;;;;9.02;4.30;;;;;;;16.25;63.51;99883.94;5069281;28;20043;-85
2023/01/01 03:05:18;;;;;;;9.80;4.28;;;;;;;16.23;63.80;99876.09;5074918;28;20112;-87
2023/01/01 03:08:02;;;;;;;8.75;3.90;;;;;;;16.24;63.56;99867.25;5074499;28;20048;-86
2023/01/01 03:10:38;;;;;;;13.30;4.90;;;;;;;16.21;63.73;99877.91;5074816;28;20066;-86
2023/01/01 03:13:16;;;;;;;8.48;4.10;;;;;;;16.24;63.37;99882.22;5073503;28;20051;-86
2023/01/01 03:15:56;;;;;;;8.27;3.70;;;;;;;16.20;63.45;99872.69;5074961;28;20375;-82
2023/01/01 03:18:44;;;;;;;9.77;4.13;;;;;;;16.21;63.82;99875.28;5073129;28;20043;-84
2023/01/01 03:21:15;;;;;;;11.05;4.13;;;;;;;16.25;63.66;99873.41;5074351;28;20039;-85
2023/01/01 03:23:46;;;;;;;8.68;4.20;;;;;;;16.23;63.66;99875.25;5074540;28;20027;-85
2023/01/01 03:26:13;;;;;;;9.00;3.70;;;;;;;16.23;63.68;99870.81;5074250;28;20588;-84
2023/01/01 03:28:45;;;;;;;10.27;4.47;;;;;;;16.21;63.47;99871.78;5074310;28;20049;-86
2023/01/01 03:31:15;;;;;;;8.48;4.03;;;;;;;16.23;63.64;99864.72;5074321;28;20021;-86
2023/01/01 03:33:46;;;;;;;11.70;4.55;;;;;;;16.20;63.67;99865.69;5074486;28;20050;-86
2023/01/01 03:36:17;;;;;;;12.20;4.60;;;;;;;16.18;63.74;99858.75;5074649;28;20024;-86
2023/01/01 03:38:49;;;;;;;13.25;4.50;;;;;;;16.15;64.04;99856.19;5073765;28;20029;-85
2023/01/01 03:41:35;;;;;;;9.90;4.18;;;;;;;16.15;63.87;99856.19;5074102;28;20070;-84
2023/01/01 03:44:32;;;;;;;9.80;3.95;;;;;;;16.18;63.96;99866.63;5073136;28;20114;-84
2023/01/01 03:46:59;;;;;;;7.22;3.65;;;;;;;16.17;63.82;99857.88;5073300;28;20043;-84
2023/01/01 03:49:24;;;;;;;11.93;4.75;;;;;;;16.16;64.03;99863.19;5074235;28;20024;-86
2023/01/01 03:52:14;;;;;;;9.43;4.18;;;;;;;16.18;63.92;99866.63;5074137;28;20028;-86
2023/01/01 03:54:43;;;;;;;9.43;4.15;;;;;;;16.18;63.85;99861.38;5073965;28;20086;-85
2023/01/01 03:57:25;;;;;;;12.82;4.35;;;;;;;16.16;64.11;99852.66;5072807;28;20035;-86
2023/01/01 03:59:58;;;;;;;10.32;3.97;;;;;;;16.16;63.89;99855.28;5073678;28;20024;-85
2023/01/01 04:02:47;;;;;;;11.20;4.25;;;;;;;16.16;63.84;99865.81;5067030;28;20028;-85
2023/01/01 04:05:13;;;;;;;11.73;5.10;;;;;;;16.19;63.79;99855.19;5058388;28;20041;-83
2023/01/01 04:07:39;;;;;;;11.05;4.28;;;;;;;16.19;63.70;99863.09;5073791;28;20521;-85
2023/01/01 04:10:15;;;;;;;9.45;4.15;;;;;;;16.20;63.96;99862.16;5072548;28;20123;-86
2023/01/01 04:13:03;;;;;;;11.68;4.30;;;;;;;16.15;64.00;99861.47;5073649;28;20058;-86
2023/01/01 04:15:29;;;;;;;8.90;4.05;;;;;;;16.20;63.71;99864.81;5072320;28;20052;-85
2023/01/01 04:17:54;;;;;;;9.48;4.10;;;;;;;16.20;63.70;99870.06;5072738;28;20024;-86
2023/01/01 04:20:21;;;;;;;8.55;4.25;;;;;;;16.22;63.82;99874.38;5072476;28;20035;-85
2023/01/01 04:22:46;;;;;;;10.88;3.90;;;;;;;16.23;63.74;99869.97;5072647;28;20032;-85
2023/01/01 04:25:12;;;;;;;10.90;3.75;;;;;;;16.23;63.40;99869.97;5072285;28;20025;-81
2023/01/01 04:27:39;;;;;;;11.48;4.30;;;;;;;16.24;63.58;99877.81;5072209;28;20047;-85
2023/01/01 04:30:07;;;;;;;9.10;4.18;;;;;;;16.22;63.52;99869.09;5073047;28;20028;-85
2023/01/01 04:32:33;;;;;;;10.68;4.60;;;;;;;16.23;63.66;99875.25;5073583;28;20052;-85
2023/01/01 04:34:59;;;;;;;9.63;3.90;;;;;;;16.19;63.63;99873.63;5073431;28;20070;-84
2023/01/01 04:37:25;;;;;;;9.35;4.00;;;;;;;16.20;63.35;99864.81;5073466;28;20028;-85
2023/01/01 04:39:51;;;;;;;9.15;4.10;;;;;;;16.18;63.62;99862.22;5073427;28;20478;-85
2023/01/01 04:42:16;;;;;;;8.90;4.35;;;;;;;16.20;63.84;99870.06;5073416;28;20029;-85
2023/01/01 04:44:41;;;;;;;10.25;4.07;;;;;;;16.16;63.69;99865.81;5071881;28;20029;-86
2023/01/01 04:47:07;;;;;;;8.55;3.80;;;;;;;16.21;63.53;99867.38;5071929;28;20032;-85
2023/01/01 04:49:32;;;;;;;7.90;3.70;;;;;;;16.20;63.59;99873.56;5073279;28;20093;-85
2023/01/01 04:51:58;;;;;;;8.68;4.18;;;;;;;16.17;63.79;99870.19;5074725;28;20061;-86
2023/01/01 04:54:23;;;;;;;11.93;3.92;;;;;;;16.18;63.69;99867.47;5076319;28;20025;-86
2023/01/01 04:56:49;;;;;;;11.77;3.90;;;;;;;16.20;63.79;99870.06;5077305;28;20021;-86
2023/01/01 04:59:14;;;;;;;10.75;4.70;;;;;;;16.20;63.54;99859.53;5075750;28;20031;-85
2023/01/01 05:01:40;;;;;;;9.57;4.22;;;;;;;16.19;63.49;99863.97;5104397;28;20036;-86
2023/01/01 05:04:05;;;;;;;8.75;4.35;;;;;;;16.20;63.46;99870.06;5077082;28;20056;-86
2023/01/01 05:06:30;;;;;;;11.45;4.28;;;;;;;16.20;63.49;99875.34;5076862;28;20044;-86
2023/01/01 05:08:57;;;;;;;8.57;3.80;;;;;;;16.23;63.50;99880.50;5076959;28;20020;-85
2023/01/01 05:11:25;;;;;;;9.32;3.92;;;;;;;16.23;63.28;99885.78;5077056;28;20032;-85
2023/01/01 05:13:52;;;;;;;11.50;4.20;;;;;;;16.24;63.28;99887.50;5077234;28;20056;-86
2023/01/01 05:16:20;;;;;;;8.13;3.92;;;;;;;16.24;63.53;99885.69;5077358;28;20044;-84
2023/01/01 05:18:46;;;;;;;7.95;3.88;;;;;;;16.21;63.47;99874.41;5075900;28;20029;-84
2023/01/01 05:21:17;;;;;;;9.90;3.97;;;;;;;16.20;63.41;99885.88;5077278;28;20476;-83
2023/01/01 05:23:43;;;;;;;9.10;4.20;;;;;;;16.23;63.51;99885.78;5076871;28;20052;-84
2023/01/01 05:26:10;;;;;;;8.25;3.85;;;;;;;16.21;63.42;99882.31;5077045;28;20017;-85
2023/01/01 05:28:36;;;;;;;6.90;3.97;;;;;;;16.22;63.40;99873.50;5076665;28;20082;-86
2023/01/01 05:31:10;;;;;;;7.93;3.63;;;;;;;16.23;63.52;99880.50;5076699;28;20502;-85
2023/01/01 05:33:36;;;;;;;9.15;3.90;;;;;;;16.21;63.44;99883.19;5076937;28;20013;-86
2023/01/01 05:36:03;;;;;;;8.13;3.83;;;;;;;16.20;63.69;99880.59;5075592;28;20054;-87
2023/01/01 05:38:28;;;;;;;8.57;3.88;;;;;;;16.18;63.47;99879.81;5076725;28;20375;-86
2023/01/01 05:40:54;;;;;;;9.30;3.38;;;;;;;16.17;63.63;99880.72;5076617;28;20028;-83
2023/01/01 05:43:20;;;;;;;7.43;3.95;;;;;;;16.15;63.66;99877.25;5075364;28;20025;-85
2023/01/01 05:45:45;;;;;;;9.55;4.40;;;;;;;16.15;63.59;99883.41;5075425;28;20553;-86
2023/01/01 05:48:11;;;;;;;10.70;4.35;;;;;;;16.14;63.76;99886.06;5075495;28;20028;-85
2023/01/01 05:50:36;;;;;;;11.95;4.50;;;;;;;16.16;63.64;99892.13;5075067;28;20504;-83
2023/01/01 05:53:02;;;;;;;8.52;3.70;;;;;;;16.15;63.90;99895.69;5075327;28;20505;-84
2023/01/01 05:55:28;;;;;;;8.00;3.47;;;;;;;16.16;63.73;99906.19;5076483;28;20096;-84
2023/01/01 05:57:53;;;;;;;14.25;4.00;;;;;;;16.18;63.42;99898.22;5074411;28;20119;-85
2023/01/01 06:00:19;;;;;;;9.18;3.83;;;;;;;16.18;63.48;99900.88;5076288;28;20493;-85
2023/01/01 06:02:44;;;;;;;10.05;3.58;;;;;;;16.19;63.58;99903.47;5075534;28;20039;-85
2023/01/01 06:05:10;;;;;;;10.15;4.18;;;;;;;16.16;63.69;99900.03;5076330;28;20024;-83
2023/01/01 06:07:35;;;;;;;10.45;4.30;;;;;;;16.15;63.80;99895.69;5075893;28;20543;-86
2023/01/01 06:10:01;;;;;;;8.80;3.83;;;;;;;16.18;63.40;99908.75;5076064;28;20051;-85
2023/01/01 06:12:27;;;;;;;9.48;4.50;;;;;;;16.15;63.78;99904.47;5075975;28;20024;-86
2023/01/01 06:14:52;;;;;;;9.25;4.28;;;;;;;16.14;63.82;99907.13;5074735;28;20020;-86
2023/01/01 06:17:17;;;;;;;7.55;3.45;;;;;;;16.14;63.56;99896.59;5074885;28;20044;-86
2023/01/01 06:19:43;;;;;;;9.77;4.03;;;;;;;16.14;63.45;99909.78;5075694;28;20021;-84
2023/01/01 06:22:08;;;;;;;7.47;4.10;;;;;;;16.10;63.84;99911.66;5075867;28;20033;-86
2023/01/01 06:24:34;;;;;;;9.88;3.85;;;;;;;16.09;63.73;99904.66;5075939;28;20025;-86
2023/01/01 06:26:59;;;;;;;8.57;4.43;;;;;;;16.14;63.39;99901.88;5074330;28;20119;-86
2023/01/01 06:29:25;;;;;;;7.10;3.83;;;;;;;16.13;63.54;99889.63;5075944;28;20070;-86
2023/01/01 06:31:50;;;;;;;13.13;3.92;;;;;;;16.09;63.48;99889.72;5075413;28;20024;-84
2023/01/01 06:34:15;;;;;;;9.52;4.05;;;;;;;16.12;63.50;99903.72;5075684;28;20042;-85
2023/01/01 06:36:41;;;;;;;8.27;3.90;;;;;;;16.12;63.62;99899.28;5075597;28;20028;-87
2023/01/01 06:39:07;;;;;;;7.40;3.63;;;;;;;16.13;63.44;99887.00;5075390;28;20020;-86
2023/01/01 06:41:33;;;;;;;10.63;3.83;;;;;;;16.10;63.86;99886.19;5075436;28;20089;-85
2023/01/01 06:44:00;;;;;;;6.60;3.97;;;;;;;16.11;63.67;99884.41;5074255;28;20474;-85
2023/01/01 06:46:29;;;;;;;10.93;3.70;;;;;;;16.09;63.80;99873.06;5075147;28;20090;-84
2023/01/01 06:49:00;;;;;;;11.02;4.30;;;;;;;16.12;63.83;99885.28;5075481;28;20021;-84
2023/01/01 06:51:28;;;;;;;11.65;4.63;;;;;;;16.14;63.66;99893.97;5074281;28;20089;-85
2023/01/01 06:53:56;;;;;;;9.93;4.18;;;;;;;16.09;63.55;99894.97;5073472;28;20041;-84
2023/01/01 06:56:22;;;;;;;8.60;3.55;;;;;;;16.12;63.50;99893.19;5075158;28;20040;-85
2023/01/01 06:58:47;;;;;;;10.75;4.30;;;;;;;16.12;63.60;99886.13;5073819;28;20029;-85
2023/01/01 07:01:16;;;;;;;10.77;3.92;;;;;;;16.06;63.88;99889.84;5073659;28;20111;-84
2023/01/01 07:03:42;;;;;;;7.38;3.60;;;;;;;16.13;63.75;99894.91;5053791;28;20267;-85
2023/01/01 07:06:09;;;;;;;6.90;3.33;;;;;;;16.07;63.75;99894.19;5054721;28;20029;-83
2023/01/01 07:08:35;;;;;;;8.52;3.63;;;;;;;16.08;64.02;99898.53;5054606;28;20048;-85
2023/01/01 07:11:01;;;;;;;10.20;3.90;;;;;;;16.08;63.94;99890.63;5053592;28;20516;-85
2023/01/01 07:13:28;;;;;;;8.88;4.00;;;;;;;16.08;63.89;99877.47;5054086;28;20061;-84
2023/01/01 07:15:54;;;;;;;10.82;4.00;;;;;;;16.08;63.82;99887.16;5054647;28;20104;-85
2023/01/01 07:18:21;;;;;;;9.00;4.15;;;;;;;16.10;63.59;99880.94;5054719;28;20036;-84
2023/01/01 07:20:56;;;;;;;10.15;3.97;;;;;;;16.09;63.76;99881.81;5053337;28;20516;-84
2023/01/01 07:23:22;;;;;;;8.65;3.83;;;;;;;16.09;63.75;99880.97;5053197;28;20116;-84
2023/01/01 07:25:48;;;;;;;10.45;3.50;;;;;;;16.08;63.67;99877.47;5054106;28;20017;-84
2023/01/01 07:28:13;;;;;;;9.43;3.78;;;;;;;16.08;63.97;99876.63;5054458;28;20143;-82
2023/01/01 07:30:39;;;;;;;10.32;3.72;;;;;;;16.05;63.68;99861.78;5054656;28;20033;-85
2023/01/01 07:33:05;;;;;;;12.50;4.10;;;;;;;16.04;63.96;99869.72;5054588;28;20144;-86
2023/01/01 07:35:30;;;;;;;7.65;3.75;;;;;;;16.05;63.79;99856.53;5054019;28;20021;-84
2023/01/01 07:37:55;;;;;;;9.57;4.18;;;;;;;16.01;63.81;99860.16;5053769;28;20017;-86
2023/01/01 07:40:21;;;;;;;10.73;4.50;;;;;;;16.06;63.98;99873.16;5054378;28;20028;-85
2023/01/01 07:42:46;;;;;;;11.05;3.95;;;;;;;16.00;64.15;99861.09;5054084;28;20036;-85
2023/01/01 07:45:12;;;;;;;9.27;4.10;;;;;;;16.01;64.16;99860.16;5054296;28;20033;-85
2023/01/01 07:47:38;;;;;;;8.68;4.07;;;;;;;16.02;64.02;99861.03;5054305;28;20051;-86
2023/01/01 07:50:04;;;;;;;7.97;3.78;;;;;;;16.00;64.01;99850.56;5054132;28;20063;-86
2023/01/01 07:52:29;;;;;;;10.20;3.58;;;;;;;15.97;64.38;99848.88;5053664;28;20017;-87
2023/01/01 07:54:54;;;;;;;9.38;3.53;;;;;;;15.98;64.38;99852.34;5052625;28;20128;-85
2023/01/01 07:57:20;;;;;;;8.85;3.80;;;;;;;15.97;64.43;99850.66;5052778;28;20021;-86
2023/01/01 07:59:45;;;;;;;6.38;3.47;;;;;;;15.96;64.32;99841.03;5053896;28;20032;-85
2023/01/01 08:02:14;;;;;;;10.60;4.20;;;;;;;15.96;64.45;99841.03;5066936;28;20082;-86
2023/01/01 08:04:39;;;;;;;10.05;3.90;;;;;;;16.00;64.39;99832.13;5073998;28;20466;-86
2023/01/01 08:07:05;;;;;;;9.43;4.05;;;;;;;15.96;64.27;99841.03;5072140;28;20048;-86
2023/01/01 08:09:30;;;;;;;10.38;3.58;;;;;;;16.00;64.54;99842.66;5073834;28;20032;-85
2023/01/01 08:11:57;;;;;;;9.45;3.95;;;;;;;15.97;64.27;99843.63;5072534;28;20522;-86
2023/01/01 08:14:24;;;;;;;10.50;3.35;;;;;;;15.99;64.42;99855.88;5073648;28;20032;-85
2023/01/01 08:16:50;;;;;;;10.23;3.78;;;;;;;15.99;64.56;99853.22;5073690;28;20039;-86
2023/01/01 08:19:16;;;;;;;7.65;3.50;;;;;;;16.01;64.33;99860.16;5073554;28;20103;-85
2023/01/01 08:21:41;;;;;;;12.35;4.13;;;;;;;15.97;64.48;99858.53;5073371;28;20032;-85
2023/01/01 08:24:07;;;;;;;8.63;3.60;;;;;;;16.02;64.25;99861.88;5073539;28;20502;-85
2023/01/01 08:26:35;;;;;;;8.27;3.50;;;;;;;16.03;64.37;99863.59;5073535;28;20035;-83
2023/01/01 08:29:05;;;;;;;8.27;3.80;;;;;;;16.04;64.30;99864.47;5072921;28;20067;-85
2023/01/01 08:31:31;;;;;;;11.25;3.95;;;;;;;16.03;64.27;99863.59;5073462;28;20090;-86
2023/01/01 08:33:57;;;;;;;10.38;3.55;;;;;;;16.04;64.18;99872.38;5073933;28;20100;-87
2023/01/01 08:36:32;;;;;;;7.55;3.15;;;;;;;16.05;64.44;99855.66;5073230;28;20134;-86
2023/01/01 08:38:57;;;;;;;6.90;3.42;;;;;;;16.04;64.14;99861.84;5073944;28;20055;-86
2023/01/01 08:41:23;;;;;;;9.30;4.10;;;;;;;16.03;64.26;99858.34;5072470;28;20496;-85
2023/01/01 08:43:48;;;;;;;10.02;4.22;;;;;;;16.05;64.25;99856.53;5073351;28;20107;-86
2023/01/01 08:46:14;;;;;;;7.82;4.07;;;;;;;16.04;64.56;99854.78;5072325;28;20056;-87
2023/01/01 08:48:40;;;;;;;11.27;3.95;;;;;;;16.01;64.52;99854.91;5073678;28;20020;-86
2023/01/01 08:51:05;;;;;;;11.15;3.67;;;;;;;16.03;64.35;99855.69;5073367;28;20100;-86
2023/01/01 08:53:32;;;;;;;12.35;4.00;;;;;;;15.99;64.67;99833.03;5072533;28;20052;-85
2023/01/01 08:55:59;;;;;;;8.18;4.03;;;;;;;16.01;64.59;99825.94;5073183;28;20070;-86
2023/01/01 08:58:25;;;;;;;10.65;3.45;;;;;;;16.06;64.17;99831.91;5073516;28;20044;-86
2023/01/01 09:00:50;;;;;;;9.10;3.50;;;;;;;16.02;64.52;99832.94;5073115;28;20056;-86
2023/01/01 09:03:16;;;;;;;10.98;4.07;;;;;;;16.02;64.64;99835.56;5072028;28;20065;-85
2023/01/01 09:05:44;;;;;;;8.45;3.72;;;;;;;16.03;64.35;99820.63;5071607;28;20036;-85
2023/01/01 09:08:14;;;;;;;11.15;3.70;;;;;;;16.04;64.93;99822.34;5072769;28;20041;-85
2023/01/01 09:10:41;;;;;;;8.82;3.70;;;;;;;16.06;64.63;99831.03;5071780;28;20028;-85
2023/01/01 09:13:07;;;;;;;11.32;3.78;;;;;;;16.08;64.44;99830.09;5073059;28;20486;-85
2023/01/01 09:15:32;;;;;;;11.23;3.92;;;;;;;16.08;64.73;99814.28;5071711;28;20026;-80
2023/01/01 09:17:58;;;;;;;10.90;4.07;;;;;;;16.09;64.76;99812.53;5071747;28;20029;-86
2023/01/01 09:20:23;;;;;;;11.90;4.57;;;;;;;16.07;64.82;99812.56;5072638;28;20375;-85
2023/01/01 09:22:49;;;;;;;10.50;3.75;;;;;;;16.04;64.55;99817.94;5073028;28;20020;-86
2023/01/01 09:25:14;;;;;;;10.98;4.20;;;;;;;16.08;64.76;99808.19;5072815;28;20103;-84
2023/01/01 09:27:40;;;;;;;8.73;3.95;;;;;;;16.06;64.56;99805.59;5072690;28;20025;-86
2023/01/01 09:30:06;;;;;;;10.02;3.70;;;;;;;16.10;64.86;99814.25;5071822;28;20062;-85
2023/01/01 09:32:31;;;;;;;9.77;4.38;;;;;;;16.12;64.80;99816.81;5072419;28;20099;-86
2023/01/01 09:34:57;;;;;;;10.60;3.67;;;;;;;16.12;64.67;99830.00;5072671;28;20024;-86
2023/01/01 09:37:23;;;;;;;9.68;3.28;;;;;;;16.14;64.82;99822.88;5074108;28;21205;-86
2023/01/01 09:39:49;;;;;;;10.35;3.90;;;;;;;16.13;64.84;99821.19;5075034;28;20025;-81
2023/01/01 09:42:43;;;;;;;9.02;3.80;;;;;;;16.17;64.61;99820.16;5075898;28;20017;-83
2023/01/01 09:45:24;;;;;;;9.70;3.50;;;;;;;16.14;64.76;99801.81;5074649;28;20027;-80
2023/01/01 09:47:56;;;;;;;9.55;3.50;;;;;;;16.15;64.77;99808.81;5074456;28;20024;-82
2023/01/01 09:50:48;;;;;;;8.55;3.90;;;;;;;16.13;64.88;99800.94;5074936;28;20024;-80
2023/01/01 09:53:40;;;;;;;11.70;3.95;;;;;;;16.16;64.83;99807.88;5074478;28;20494;-83
2023/01/01 09:56:13;;;;;;;10.00;3.80;;;;;;;16.14;64.90;99805.34;5076028;28;20043;-85
2023/01/01 09:58:39;;;;;;;12.48;4.05;;;;;;;16.16;64.71;99815.78;5075677;28;20025;-81
2023/01/01 10:01:42;;;;;;;9.00;3.63;;;;;;;16.18;64.79;99803.44;5075773;28;20036;-84
2023/01/01 10:04:36;;;;;;;12.10;4.20;;;;;;;16.21;64.74;99814.72;5055560;28;20060;-84
2023/01/01 10:07:13;;;;;;;10.85;4.13;;;;;;;16.20;64.77;99794.59;5055410;28;20107;-82
2023/01/01 10:09:54;;;;;;;11.63;4.32;;;;;;;16.24;64.41;99797.97;5055688;28;20044;-83
2023/01/01 10:12:25;;;;;;;9.65;3.45;;;;;;;16.23;64.54;99804.16;5055761;28;20087;-84
2023/01/01 10:15:00;;;;;;;8.25;3.33;;;;;;;16.25;64.57;99810.22;5055529;28;20051;-84
2023/01/01 10:17:35;;;;;;;10.68;3.72;;;;;;;16.27;64.71;99795.19;5053866;28;20021;-82
2023/01/01 10:20:09;;;;;;;7.43;3.97;;;;;;;16.27;64.38;99803.09;5055382;28;20052;-84
2023/01/01 10:22:39;;;;;;;11.88;4.15;;;;;;;16.30;64.51;99802.13;5055119;28;20029;-84
2023/01/01 10:25:18;;;;;;;7.85;3.30;;;;;;;16.29;64.63;99790.75;5054387;28;20379;-84
2023/01/01 10:28:00;;;;;;;7.22;2.92;;;;;;;16.29;64.38;99796.03;5055587;28;20025;-84
2023/01/01 10:30:28;;;;;;;7.85;3.80;;;;;;;16.31;64.39;99804.72;5055041;28;20031;-84
2023/01/01 10:32:55;;;;;;;11.15;3.88;;;;;;;16.33;64.58;99800.25;5054992;28;20047;-82
2023/01/01 10:35:29;;;;;;;12.07;4.18;;;;;;;16.33;64.55;99797.63;5055585;28;20032;-84
2023/01/01 10:37:57;;;;;;;10.85;4.35;;;;;;;16.31;64.55;99799.44;5055285;28;20055;-83
2023/01/01 10:40:25;;;;;;;9.13;3.75;;;;;;;16.34;64.59;99799.34;5055200;28;20056;-84
2023/01/01 10:42:59;;;;;;;10.90;4.20;;;;;;;16.35;64.53;99794.94;5055319;28;20036;-85
2023/01/01 10:45:33;;;;;;;8.05;3.90;;;;;;;16.36;64.17;99792.25;5053840;28;20035;-85
2023/01/01 10:48:10;;;;;;;10.15;3.75;;;;;;;16.40;64.16;99787.72;5053053;28;20109;-84
2023/01/01 10:50:53;;;;;;;8.48;3.95;;;;;;;16.41;64.11;99791.22;5054699;28;20554;-84
2023/01/01 10:53:40;;;;;;;7.95;3.53;;;;;;;16.40;64.18;99787.72;5053970;28;20440;-85
2023/01/01 10:56:16;;;;;;;11.38;4.38;;;;;;;16.43;64.11;99770.94;5053799;28;20083;-85
2023/01/01 10:59:00;;;;;;;12.32;4.38;;;;;;;16.42;64.23;99782.41;5053719;28;20514;-85
2023/01/01 11:01:30;;;;;;;9.32;3.45;;;;;;;16.43;64.07;99770.94;5061357;28;20028;-84
2023/01/01 11:03:55;;;;;;;10.35;3.83;;;;;;;16.44;64.03;99763.00;5073873;28;20188;-84
2023/01/01 11:06:32;;;;;;;9.43;4.40;;;;;;;16.44;64.21;99763.00;5073524;28;20078;-81
2023/01/01 11:09:02;;;;;;;12.23;4.85;;;;;;;16.43;64.42;99770.94;5074767;28;20025;-85
2023/01/01 11:11:43;;;;;;;9.02;4.30;;;;;;;16.43;64.12;99761.28;5074947;28;20047;-85
2023/01/01 11:14:25;;;;;;;9.48;3.45;;;;;;;16.45;64.05;99766.47;5073386;28;20094;-84
2023/01/01 11:16:52;;;;;;;8.02;3.80;;;;;;;16.46;64.35;99762.94;5074105;28;20036;-84
2023/01/01 11:19:26;;;;;;;9.02;4.07;;;;;;;16.44;64.11;99751.59;5073131;28;20115;-85
2023/01/01 11:21:52;;;;;;;8.98;3.75;;;;;;;16.44;64.56;99756.84;5073376;28;20041;-85
2023/01/01 11:24:23;;;;;;;9.43;4.07;;;;;;;16.46;64.28;99757.69;5073336;28;20025;-85
2023/01/01 11:26:50;;;;;;;10.30;4.00;;;;;;;16.46;64.49;99755.88;5073230;28;20028;-84
2023/01/01 11:29:16;;;;;;;12.77;4.55;;;;;;;16.46;64.22;99752.41;5072651;28;20162;-84
2023/01/01 11:31:44;;;;;;;9.27;3.65;;;;;;;16.45;64.49;99748.91;5074025;28;20062;-84
2023/01/01 11:34:36;;;;;;;10.30;3.70;;;;;;;16.46;64.34;99728.72;5074314;28;20060;-84
2023/01/01 11:37:13;;;;;;;8.35;3.83;;;;;;;16.47;64.18;99730.41;5074234;28;20518;-84
2023/01/01 11:39:43;;;;;;;7.50;3.95;;;;;;;16.48;64.09;99732.97;5072900;28;20036;-84
2023/01/01 11:42:16;;;;;;;8.68;3.83;;;;;;;16.49;64.29;99723.31;5073084;28;20032;-84
2023/01/01 11:44:50;;;;;;;8.48;3.88;;;;;;;16.49;64.01;99712.78;5072815;28;20040;-81